Terminal Aerodrome Forecast
Issued by NWS Buffalo, NY

Home | Current Version | Previous Version | Text Only | Print | Product List | Glossary On
Versions: 1 2 3 4 5 6 7 8 9 10 11 12 13 14 15 16 17 18 19 20 21 22 23 24 25 26 27 28
868
FTUS41 KBUF 172136 AAA
TAFBUF
TAF AMD
KBUF 172136Z 1722/1818 08008KT P6SM VCSH BKN050 BKN120
      TEMPO 1723/1802 4SM -TSRA OVC035CB
     FM180200 11006KT P6SM VCSH OVC060
     FM180500 20009KT P6SM BKN035
     FM181100 23010G16KT P6SM SCT060
     FM181700 24017G25KT P6SM SCT250=

USA.gov is the U.S. government's official web portal to all federal, state and local government web resources and services.